Aeroporto :
LOGIN :

Iscrizione | Disclaimer

   EN    FR    IT 

 










Sommario :    VFR   VFR Marginale   IFR   IFR Intensivo   IFR Molto Intensivo
Visibilità : 
Base nubi : 
>= 8 km
>= 3000ft
5 / 8 km
1000 / 3000 ft
1500m / 5 km
500 / 1000 ft
800 / 1500m
200 / 500 ft
< 800m
< 200 ft
Simboli :   Temporali  Nebbia  Neve Forte  Precipitazioni Forti  Vento > 20 kt
SIGMETs :   Varie  Temporali  Ghiacco  Turbolenza  Onda orograficha  Ceneri Vulcaniche






- Altitudine del aeroporto : 276 ft


LYVR - Vršac International

ULTIMO METAR :
  • 240930Z 21008KT 190V260 9999 SCT016 SCT030 13/11 Q1006 NOSIG

METARs OBSOLETI :
  • 240900Z 23007KT 200V260KT 9999 SCT016 BKN023 12/11 Q1005 NOSIG
  • 240830Z 22007KT 9999 SCT013 BKN023 12/11 Q1005 NOSIG
  • 240800Z 22009KT 9999 SCT013 BKN023 12/11 Q1005 NOSIG
  • 240730Z 23006KT 170V260 9999 SCT010 BKN023 12/11 Q1005 NOSIG
  • 240700Z 19007KT 160V220 9999 SCT010 BKN023 12/12 Q1005 NOSIG
  • 240630Z 18007KT 160V220 9999 SCT007 OVC017 11/11 Q1005 NOSIG
  • 240600Z 18008KT 9999 SCT007 OVC016 11/11 Q1005 NOSIG
  • 240530Z 17007KT 140V210 9999 SCT007 OVC013 11/11 Q1005 NOSIG
  • 240500Z AUTO 18008KT 9999 OVC012/// 10/10 Q1004

TAF TAF LYVR
Valido dal 24 a 06 ore il 25 a 06 ore UTC


240500Z 2406/2506 24008KT 9999 OVC008 TX16/2412Z TN06/2504Z
BECMG 2406/2408 SCT025
TEMPO 2414/2418 26015G25KT 4000 TSRA SCT030CB SCT040



MetMap, La meteo Aeronautica in un colpo d'occhio ! - Copyright ORBIFLY Dicembre 2007 - Disclaimer

ORBIFLY MET'MAP TEAM :

Programmazione e sviluppo : Alexandra Zaïnal
Concezione : Baudouin d'Aumeries
Supporto tecnico e logistico : Manuel Goepfert
Aiuto : Marc-Olivier Méhu
Aiuto per la traduzione : Arnaldo La Scala




FONTI E CREDITI :

   NOAA